9TN7 weather

Baskin Airport
Covington, Tennessee, United States

Public forecast

Using degrees Fahrenheit for public forecast. Weather courtesy of forecast.io.

METAR (pilot weather report)

Closest report is Millington-Memphis Airport, 12.6 nm (23.3 km) SSW. Retrieved 2019/05/25 19:50 UTC (33 minutes ago):

KNQA 251950Z 23012KT 10SM FEW055 32/19 A3009

TAF (pilot weather forecast)

Closest forecast is Memphis International Airport, 31.8 nm (58.9 km) SSW. Retrieved 2019/05/25 18:36 UTC (2 hours ago):

TAF KMEM 251733Z 2518/2624 22007KT P6SM FEW050 SCT250 FM260100 19005KT P6SM SKC FM261500 22009G15KT P6SM FEW040